Sunday, November 18, 2018, 2:44 PM GMT
Back to Local

CWFQ, Frelighsburg

Location: , , Canada Lat: 45.05
Local Time: 2:44 PM GMT (14:44 GMT) Lon: -72.833
Time Zone: GMT Elev: 498 ft

Show me the last for .
Show Decoded

2018-11-18 14:00 METAR CWFQ 181400Z AUTO 14002KT M08/M10 RMK AO1 SOG 23 1013 SLP289 T10771095 =
2018-11-18 13:00 METAR CWFQ 181300Z AUTO 22001KT M08/M12 RMK AO1 SOG 23 1013 SLP285 T10831117 =
2018-11-18 12:00 METAR CWFQ 181200Z AUTO 27001KT M10/M11 RMK AO1 SOG 23 3014 SLP282 T10981110 =
2018-11-18 11:00 METAR CWFQ 181100Z AUTO 24002KT M10/M12 RMK AO1 SOG 23 2012 SLP276 T10991115 =
2018-11-18 10:00 METAR CWFQ 181000Z AUTO 21002KT M10/M11 RMK AO1 SOG 23 3010 SLP272 T10961110 =
2018-11-18 09:00 METAR CWFQ 180900Z AUTO 29001KT M09/M11 RMK AO1 SOG 24 1013 SLP267 T10871106 =
2018-11-18 08:00 METAR CWFQ 180800Z AUTO 29001KT M07/M10 RMK AO1 SOG 24 1013 SLP263 T10651095 =
2018-11-18 07:00 METAR CWFQ 180700Z AUTO 28002KT M06/M08 RMK AO1 SOG 24 1022 SLP260 T10601083 =
2018-11-18 06:00 METAR CWFQ 180600Z AUTO 30001KT M05/M08 RMK AO1 SOG 24 2019 SLP253 T10451083 =
2018-11-18 05:00 METAR CWFQ 180500Z AUTO 28001KT M06/M10 RMK AO1 SOG 24 3024 SLP249 T10581099 =
2018-11-18 04:00 METAR CWFQ 180400Z AUTO 32004KT M05/M10 RMK AO1 SOG 24 1023 SLP237 T10501096 =
2018-11-18 03:00 METAR CWFQ 180300Z AUTO 32005KT M03/M06 RMK AO1 SOG 23 2028 SLP233 T10341064 =
2018-11-18 02:00 METAR CWFQ 180200Z AUTO 31005KT M02/M05 RMK AO1 SOG 22 2029 SLP223 T10231050 =
2018-11-18 01:00 METAR CWFQ 180100Z AUTO 31003KT M02/M04 RMK AO1 SOG 23 2028 SLP213 T10171041 =
2018-11-18 00:00 METAR CWFQ 180000Z AUTO 32006KT M01/M04 RMK AO1 SOG 23 2029 SLP203 T10131035
                 50011 =
2018-11-17 23:00 METAR CWFQ 172300Z AUTO 29004KT M01/M01 RMK AO1 SOG 23 3025 SLP193 T10051012
                 50011 =
2018-11-17 22:00 METAR CWFQ 172200Z AUTO 27003KT M00/M01 RMK AO1 2PAST HR SOG 24 3022 SLP184
                 P0001 T10031006 50011 =
2018-11-17 21:00 METAR CWFQ 172100Z AUTO 27003KT M00/M01 RMK AO1 SOG 24 1020 SLP174 T10031007
                 50009 =
2018-11-17 20:00 METAR CWFQ 172000Z AUTO 26004KT M00/M01 RMK AO1 7PAST HR SOG 24 3017 SLP168
                 P0003 T10031008 50009 =
2018-11-17 19:00 METAR CWFQ 171900Z AUTO 31004KT M00/M01 RMK AO1 2PAST HR SOG 26 3011 SLP161
                 P0001 T10021007 50002 =
2018-11-17 18:00 METAR CWFQ 171800Z AUTO 25003KT 01/M00 RMK AO1 5PAST HR SOG 26 3005 SLP153 P0002
                 T00081002 50012 =
2018-11-17 17:00 METAR CWFQ 171700Z AUTO 26001KT 01/M00 RMK AO1 3PAST HR SOG 26 1004 SLP150 P0001
                 T00101002 50008 =
2018-11-17 16:00 METAR CWFQ 171600Z AUTO 32001KT 01/M00 RMK AO1 3PAST HR SOG 26 1007 SLP150 P0001
                 T00091001 50005 =
2018-11-17 15:00 METAR CWFQ 171500Z AUTO 22002KT 01/M00 RMK AO1 3PAST HR SOG 25 1014 SLP148 P0001
                 T00061001 50003 =

Support USWX by starting your Amazon purchase here.